Terminal Aerodrome Forecast
Issued by NWS

Home | Current Version | Previous Version | Graphics & Text | Print | Product List | Glossary On
Versions: 1 2 3 4 5 6 7 8 9 10 11 12 13 14 15 16 17 18 19 20 21 22 23 24 25 26 27 28 29 30 31 32
851
FTUS43 KBIS 240534
TAFDIK
TAF
KDIK 240534Z 2406/2506 VRB05KT 1/2SM FG VCTS OVC003CB
     FM241500 20015G21KT P6SM BKN010
     FM242000 21017G24KT P6SM BKN030
     FM250000 23016G24KT 5SM -SHRA OVC020
     FM250100 25016G24KT 3SM -SHRA OVC012
     FM250500 31021G31KT 3SM -SHRA OVC015=

USA.gov is the U.S. government's official web portal to all federal, state and local government web resources and services.